Terminal Aerodrome Forecast
Issued by NWS King Salmon, AK

Home | Current Version | Previous Version | Text Only | Print | Product List | Glossary On
Versions: 1 2 3 4 5 6 7 8 9 10 11 12 13 14 15 16 17 18 19 20 21 22 23 24 25 26 27 28
000
FTAK31 PANC 240537
TAFAKN
TAF
PAKN 240537Z 2406/2506 16011KT P6SM SCT025
     FM241000 08011KT P6SM -RA SCT015 OVC025
     FM241400 12011KT P6SM BKN050
     FM250000 12015G25KT P6SM VCSH SCT025 BKN050=

USA.gov is the U.S. government's official web portal to all federal, state and local government web resources and services.